• Join FlightAware (Why Join?)
  • Login
  • US Flag 
12:44PM EDT


 

Airport Tracker/Info


-or-


 

Live Flight TrackerFlight Track Log ✈ LNI696 ✈ 18-Oct-2013 ✈ WIII / CGK - WARR / SUB

Flight Track Log - Related Links

Times and Time Zones

All times are in EDT time to prevent confusion due to time zone crossing. See the LNI696 flight status page for this flight to view local times or setup timezone preferences in your user account.

Time Position Orientation Groundspeed Altitude Reporting Facility
EDT Latitude Longitude Course Direction KTS MPH feet Rate Location/Type
06:46AM -6.1370 106.7030 121° Southeast 193 222 1,800  Level FlightAware
06:47AM -6.1500 106.7130 143° Southeast 213 245 2,100 1,140 Climbing FlightAware
06:47AM -6.1650 106.7280 135° Southeast 238 274 2,500 1,320 Climbing FlightAware
06:47AM -6.1810 106.7450 133° Southeast 259 298 3,000 1,860 Climbing FlightAware
06:48AM -6.1970 106.7640 130° Southeast 268 308 3,800 2,520 Climbing FlightAware
06:48AM -6.2140 106.7850 129° Southeast 266 306 4,800 2,880 Climbing FlightAware
06:48AM -6.2300 106.8040 130° Southeast 263 303 5,800 2,700 Climbing FlightAware
06:49AM -6.2480 106.8240 132° Southeast 265 305 6,700 2,400 Climbing FlightAware
06:49AM -6.2660 106.8450 131° Southeast 270 311 7,600 2,400 Climbing FlightAware
06:49AM -6.2810 106.8650 127° Southeast 272 313 8,400 2,160 Climbing FlightAware
06:50AM -6.2910 106.8860 116° Southeast 275 316 9,000 2,100 Climbing FlightAware
06:50AM -6.3120 106.9290 116° Southeast 280 322 10,400 1,620 Climbing FlightAware
06:51AM -6.3340 106.9740 116° Southeast 313 360 11,000 1,020 Climbing FlightAware
06:52AM -6.3550 107.0220 114° Southeast 341 392 11,600 1,680 Climbing FlightAware
06:52AM -6.3770 107.0760 112° Southeast 343 395 13,000 2,160 Climbing FlightAware
06:53AM -6.3990 107.1300 112° Southeast 354 407 14,200 1,680 Climbing FlightAware
06:53AM -6.4180 107.1760 113° Southeast 369 425 14,900 1,680 Climbing FlightAware
06:54AM -6.4430 107.2360 113° Southeast 380 437 16,100 2,100 Climbing FlightAware
06:55AM -6.4690 107.2990 113° Southeast 384 442 17,500 2,160 Climbing FlightAware
06:55AM -6.4920 107.3560 112° Southeast 387 445 18,700 1,740 Climbing FlightAware
06:56AM -6.5140 107.4120 112° Southeast 399 459 19,500 1,320 Climbing FlightAware
06:56AM -6.5390 107.4760 111° Southeast 410 472 20,300 1,380 Climbing FlightAware
06:57AM -6.5500 107.5340 101° East 417 480 21,100 1,440 Climbing FlightAware
06:57AM -6.5590 107.5960 98° East 423 487 21,900 1,500 Climbing FlightAware
06:58AM -6.5690 107.6720 98° East 432 497 22,900 1,500 Climbing FlightAware
06:59AM -6.5800 107.7450 99° East 437 503 23,700 1,500 Climbing FlightAware
06:59AM -6.5910 107.8180 99° East 438 504 24,700 1,500 Climbing FlightAware
07:00AM -6.6010 107.8870 98° East 442 509 25,500 1,200 Climbing FlightAware
07:00AM -6.6120 107.9610 99° East 448 516 26,100 960 Climbing FlightAware
07:01AM -6.6240 108.0360 99° East 456 525 26,700 1,680 Climbing FlightAware
07:01AM -6.6340 108.1050 98° East 436 502 28,100 1,980 Climbing FlightAware
07:02AM -6.6450 108.1770 99° East 432 497 29,000 900 Climbing FlightAware
07:03AM -6.6560 108.2460 99° East 446 513 29,200 240 Climbing FlightAware
07:03AM -6.6680 108.3240 99° East 461 531 29,300 300 Climbing FlightAware
07:04AM -6.6780 108.3930 98° East 470 541 29,600 660 Climbing FlightAware
07:04AM -6.6900 108.4700 99° East 471 542 30,100 780 Climbing FlightAware
07:05AM -6.7020 108.5500 99° East 473 544 30,600 960 Climbing FlightAware
07:06AM -6.7120 108.6180 98° East 472 543 31,200 960 Climbing FlightAware
07:06AM -6.7230 108.6950 98° East 472 543 31,700 780 Climbing FlightAware
07:07AM -6.7350 108.7740 99° East 473 544 32,200 900 Climbing FlightAware
07:07AM -6.7480 108.8540 99° East 473 544 32,800 840 Climbing FlightAware
07:08AM -6.7580 108.9190 99° East 474 545 33,200 300 Climbing FlightAware
07:09AM -6.7670 108.9880 97° East 474 545 33,200  Level FlightAware
07:09AM -6.7770 109.0550 99° East 474 545 33,200 1,500 Level FlightAware
07:10AM -6.7910 109.1460 99° East 467 537 34,900 1,560 Climbing FlightAware
07:10AM -6.8030 109.2260 99° East 466 536 35,000 60 Climbing FlightAware
07:11AM -6.8150 109.3030 99° East 465 535 35,000  Level FlightAware
07:11AM -6.8220 109.3500 99° East 464 534 35,000  Level FlightAware
07:12AM -6.8390 109.4680 98° East 464 534 35,000  Level FlightAware
07:13AM -6.8510 109.5470 99° East 463 533 35,000  Level FlightAware
07:13AM -6.8610 109.6130 99° East 462 532 35,000  Level FlightAware
07:14AM -6.8730 109.6940 98° East 462 532 35,000  Level FlightAware
07:15AM -6.8870 109.7920 98° East 461 531 35,000  Level FlightAware
07:15AM -6.8990 109.8720 99° East 461 531 35,000  Level FlightAware
07:16AM -6.9090 109.9350 99° East 461 531 35,000  Level FlightAware
07:16AM -6.9210 110.0170 98° East 461 531 35,000  Level FlightAware
07:17AM -6.9320 110.0920 98° East 462 532 35,000  Level FlightAware
07:18AM -6.9420 110.1630 98° East 462 532 35,000  Level FlightAware
07:18AM -6.9510 110.2280 98° East 462 532 35,000  Level FlightAware
07:19AM -6.9600 110.2940 98° East 462 532 35,000  Level FlightAware
07:19AM -6.9690 110.3590 98° East 462 532 35,000  Level FlightAware
07:20AM -6.9780 110.4210 98° East 462 532 35,000  Level FlightAware
07:21AM -6.9870 110.4860 98° East 462 532 35,000  Level FlightAware
07:21AM -6.9960 110.5510 98° East 462 532 35,000  Level FlightAware
07:22AM -7.0050 110.6160 98° East 462 532 35,000  Level FlightAware
07:22AM -7.0140 110.6830 98° East 462 532 35,000  Level FlightAware
07:23AM -7.0240 110.7490 99° East 462 532 35,000  Level FlightAware
07:24AM -7.0330 110.8140 98° East 462 532 35,000  Level FlightAware
07:24AM -7.0420 110.8790 98° East 462 532 35,000  Level FlightAware
07:25AM -7.0510 110.9460 98° East 462 532 35,000  Level FlightAware
07:25AM -7.0600 111.0130 98° East 462 532 35,000  Level FlightAware
07:26AM -7.0720 111.0970 98° East 462 532 35,000  Level FlightAware
07:27AM -7.0810 111.1640 98° East 462 532 35,000  Level FlightAware
07:29AM -7.1080 111.3092 101° East  Level Estimated
07:30AM -7.1243 111.3971 101° East  Level Estimated
07:31AM -7.1406 111.4851 101° East  Level Estimated
07:32AM -7.1569 111.5731 101° East  Level Estimated
07:33AM -7.1732 111.6611 101° East  Level Estimated
07:34AM -7.1894 111.7491 101° East  Level Estimated
07:35AM -7.2057 111.8371 101° East  Level Estimated
07:36AM -7.2219 111.9251 101° East  Level Estimated
07:37AM -7.2381 112.0131 101° East  Level Estimated
07:38AM -7.2543 112.1012 101° East  Level Estimated
07:39AM -7.2705 112.1892 100° East  Level Estimated
07:40AM -7.2867 112.2772 100° East  Level Estimated
07:41AM -7.3028 112.3653 100° East  Level Estimated
07:42AM -7.3189 112.4533 100° East  Level Estimated
07:43AM -7.3350 112.5414 100° East  Level Estimated
07:44AM -7.3511 112.6294 100° East  Level Estimated
07:45AM -7.3672 112.7175 100° East  Level Estimated
07:46AM -7.3798 112.7869 100° East  Level Estimated
07:47AM -7.3798 112.7869 243° Southwest  Level Estimated
07:48AM -7.3798 112.7869 243° Southwest  Level Estimated
07:49AM -7.3798 112.7869 243° Southwest  Level Estimated
07:50AM -7.3798 112.7869 243° Southwest  Level Estimated
07:51AM -7.3798 112.7869 243° Southwest  Level Estimated
07:52AM -7.3798 112.7869 243° Southwest  Level Estimated
07:53AM -7.3798 112.7869 243° Southwest  Level Estimated
07:54AM -7.3798 112.7869 243° Southwest  Level Estimated
07:55AM -7.3798 112.7869 243° Southwest  Level Estimated
07:56AM -7.3798 112.7869 243° Southwest  Level Estimated
07:57AM -7.3798 112.7869 243° Southwest  Level Estimated
07:58AM -7.3798 112.7869 243° Southwest  Level Estimated
07:59AM -7.3798 112.7869 243° Southwest  Level Estimated
08:00AM -7.3798 112.7869 243° Southwest  Level Estimated
08:01AM -7.3798 112.7869 243° Southwest  Level Estimated
08:02AM -7.3798 112.7869 243° Southwest  Level Estimated
08:03AM -7.3798 112.7869 243° Southwest  Level Estimated
08:04AM -7.3798 112.7869 243° Southwest  Level Estimated
08:05AM -7.3798 112.7869 243° Southwest  Level Estimated
08:06AM -7.3798 112.7869 243° Southwest  Level Estimated
08:07AM -7.3798 112.7869 243° Southwest  Level Estimated
08:08AM -7.3798 112.7869 243° Southwest  Level Estimated
08:09AM -7.3798 112.7869 243° Southwest  Level Estimated
08:10AM -7.3798 112.7869 243° Southwest  Level Estimated